createdAt,value
2018-09-27T00:00:25.195Z,7.90
2018-09-27T00:02:53.839Z,5.10
2018-09-27T00:05:23.159Z,7.30
2018-09-27T00:07:52.624Z,8.37
2018-09-27T00:10:21.484Z,8.20
2018-09-27T00:12:50.200Z,11.87
2018-09-27T00:15:18.844Z,7.03
2018-09-27T00:17:47.392Z,3.83
2018-09-27T00:20:15.996Z,5.63
2018-09-27T00:22:44.729Z,9.70
2018-09-27T00:25:13.303Z,4.07
2018-09-27T00:27:41.852Z,4.20
2018-09-27T00:30:10.738Z,2.93
2018-09-27T00:32:39.263Z,2.40
2018-09-27T00:35:07.575Z,5.47
2018-09-27T00:37:36.172Z,1.90
2018-09-27T00:40:04.836Z,5.60
2018-09-27T00:42:33.416Z,3.77
2018-09-27T00:45:02.027Z,3.00
2018-09-27T00:47:30.700Z,5.37
2018-09-27T00:49:59.378Z,5.30
2018-09-27T00:52:27.960Z,4.60
2018-09-27T00:54:56.527Z,2.57
2018-09-27T00:57:25.152Z,2.23
2018-09-27T00:59:53.689Z,2.20
2018-09-27T01:02:22.227Z,4.87
2018-09-27T01:04:50.788Z,3.23
2018-09-27T01:07:19.352Z,3.37
2018-09-27T01:09:48.008Z,2.43
2018-09-27T01:12:16.576Z,3.77
2018-09-27T01:14:45.113Z,4.40
2018-09-27T01:17:13.699Z,2.17
2018-09-27T01:19:43.090Z,5.03
2018-09-27T01:22:11.835Z,4.80
2018-09-27T01:24:40.355Z,2.87
2018-09-27T01:27:09.014Z,2.97
2018-09-27T01:29:37.592Z,2.40
2018-09-27T01:32:06.136Z,2.00
2018-09-27T01:34:34.807Z,2.90
2018-09-27T01:37:03.384Z,8.30
2018-09-27T01:39:31.905Z,3.57
2018-09-27T01:42:00.452Z,5.83
2018-09-27T01:44:29.072Z,2.60
2018-09-27T01:46:57.633Z,1.93
2018-09-27T01:49:26.458Z,1.53
2018-09-27T01:51:55.004Z,4.00
2018-09-27T01:54:23.683Z,3.57
2018-09-27T01:56:52.217Z,2.33
2018-09-27T01:59:20.784Z,1.90
2018-09-27T02:01:49.342Z,3.20
2018-09-27T02:04:17.888Z,2.47
2018-09-27T02:06:46.446Z,3.93
2018-09-27T02:09:15.036Z,2.50
2018-09-27T02:11:43.659Z,2.90
2018-09-27T02:14:12.204Z,1.90
2018-09-27T02:16:40.875Z,1.90
2018-09-27T02:19:09.408Z,5.90
2018-09-27T02:24:27.972Z,3.63
2018-09-27T02:26:56.520Z,2.60
2018-09-27T02:29:25.064Z,2.50
2018-09-27T02:31:53.596Z,3.07
2018-09-27T02:34:22.145Z,1.73
2018-09-27T02:36:50.724Z,4.00
2018-09-27T02:39:19.377Z,2.53
2018-09-27T02:41:47.918Z,5.23
2018-09-27T02:44:16.475Z,7.63
2018-09-27T02:46:45.016Z,3.73
2018-09-27T02:49:13.681Z,7.67
2018-09-27T02:51:42.256Z,5.00
2018-09-27T02:54:10.816Z,4.53
2018-09-27T02:56:39.369Z,3.03
2018-09-27T02:59:08.000Z,4.27
2018-09-27T03:01:36.545Z,9.03
2018-09-27T03:04:05.111Z,5.20
2018-09-27T03:06:33.653Z,5.80
2018-09-27T03:09:02.168Z,7.53
2018-09-27T03:11:30.739Z,3.30
2018-09-27T03:13:59.279Z,1.93
2018-09-27T03:16:27.799Z,2.77
2018-09-27T03:18:56.340Z,2.40
2018-09-27T03:21:24.871Z,4.43
2018-09-27T03:23:53.431Z,2.07
2018-09-27T03:26:21.976Z,9.70
2018-09-27T03:28:50.563Z,4.67
2018-09-27T03:31:19.125Z,2.30
2018-09-27T03:33:47.706Z,3.87
2018-09-27T03:36:16.425Z,4.13
2018-09-27T03:38:44.984Z,5.57
2018-09-27T03:41:13.544Z,35.70
2018-09-27T03:43:42.298Z,25.97
2018-09-27T03:46:11.614Z,14.43
2018-09-27T03:48:40.244Z,14.53
2018-09-27T03:51:08.824Z,9.17
2018-09-27T03:53:37.420Z,4.63
2018-09-27T03:56:06.068Z,4.60
2018-09-27T03:58:34.604Z,3.20
2018-09-27T04:01:03.156Z,3.10
2018-09-27T04:03:31.712Z,2.93
2018-09-27T04:06:00.267Z,2.27
2018-09-27T04:08:28.808Z,4.00
2018-09-27T04:10:57.501Z,3.10
2018-09-27T04:13:26.060Z,1.90
2018-09-27T04:15:54.713Z,3.90
2018-09-27T04:18:23.438Z,2.00
2018-09-27T04:20:52.867Z,4.23
2018-09-27T04:23:24.303Z,1.90
2018-09-27T04:25:53.039Z,1.80
2018-09-27T04:28:22.213Z,4.40
2018-09-27T04:30:50.808Z,2.30
2018-09-27T04:33:19.389Z,3.47
2018-09-27T04:35:48.012Z,5.50
2018-09-27T04:38:16.567Z,5.87
2018-09-27T04:40:45.166Z,2.53
2018-09-27T04:43:13.839Z,1.53
2018-09-27T04:45:42.456Z,4.43
2018-09-27T04:48:11.091Z,1.80
2018-09-27T04:50:39.621Z,2.47
2018-09-27T04:53:08.164Z,4.40
2018-09-27T04:55:36.788Z,1.80
2018-09-27T04:58:05.359Z,1.50
2018-09-27T05:00:33.883Z,2.93
2018-09-27T05:03:02.427Z,2.80
2018-09-27T05:05:30.984Z,3.23
2018-09-27T05:07:59.529Z,6.90
2018-09-27T05:10:28.060Z,5.17
2018-09-27T05:12:56.615Z,2.83
2018-09-27T05:15:25.236Z,1.93
2018-09-27T05:17:53.743Z,5.20
2018-09-27T05:20:23.199Z,1.90
2018-09-27T05:22:51.808Z,2.70
2018-09-27T05:25:20.347Z,3.10
2018-09-27T05:27:48.896Z,2.53
2018-09-27T05:30:17.523Z,5.47
2018-09-27T05:32:46.060Z,4.60
2018-09-27T05:35:14.637Z,6.60
2018-09-27T05:37:43.207Z,5.80
2018-09-27T05:40:11.783Z,4.90
2018-09-27T05:42:40.392Z,4.10
2018-09-27T05:45:09.003Z,3.10
2018-09-27T05:47:37.563Z,4.50
2018-09-27T05:50:07.185Z,4.00
2018-09-27T05:52:35.834Z,3.13
2018-09-27T05:55:04.458Z,1.87
2018-09-27T05:57:33.046Z,6.60
2018-09-27T06:00:01.568Z,16.00
2018-09-27T06:02:30.792Z,7.70
2018-09-27T06:05:00.560Z,9.33
2018-09-27T06:07:29.120Z,6.20
2018-09-27T06:09:57.699Z,5.23
2018-09-27T06:12:27.300Z,8.97
2018-09-27T06:14:55.848Z,2.83
2018-09-27T06:17:24.380Z,1.83
2018-09-27T06:19:53.029Z,3.63
2018-09-27T06:22:21.521Z,1.83
2018-09-27T06:24:50.088Z,2.93
2018-09-27T06:27:18.620Z,2.20
2018-09-27T06:29:47.159Z,5.00
2018-09-27T06:32:15.765Z,6.43
2018-09-27T06:34:44.871Z,2.97
2018-09-27T06:37:13.438Z,4.97
2018-09-27T06:39:41.973Z,7.77
2018-09-27T06:42:10.535Z,3.87
2018-09-27T06:44:39.111Z,8.20
2018-09-27T06:47:07.756Z,4.17
2018-09-27T06:49:36.293Z,5.03
2018-09-27T06:52:04.864Z,4.40
2018-09-27T06:54:33.504Z,1.63
2018-09-27T06:57:02.036Z,8.43
2018-09-27T06:59:30.595Z,4.33
2018-09-27T07:01:59.168Z,10.67
2018-09-27T07:04:27.732Z,4.90
2018-09-27T07:06:56.260Z,4.10
2018-09-27T07:09:24.784Z,6.80
2018-09-27T07:11:53.329Z,3.93
2018-09-27T07:14:21.917Z,8.57
2018-09-27T07:16:50.436Z,5.80
2018-09-27T08:26:21.259Z,7.00
2018-09-27T08:28:49.784Z,6.83
2018-09-27T08:31:18.409Z,6.63
2018-09-27T08:33:46.931Z,8.60
2018-09-27T08:36:15.484Z,10.90
2018-09-27T08:38:44.118Z,8.17
2018-09-27T08:41:12.765Z,6.50
2018-09-27T08:43:41.361Z,6.00
2018-09-27T08:46:09.928Z,8.13
2018-09-27T08:51:28.677Z,5.57
2018-09-27T08:53:58.153Z,8.13
2018-09-27T08:59:16.904Z,6.10
2018-09-27T09:01:45.427Z,6.27
2018-09-27T09:04:13.991Z,7.20
2018-09-27T09:06:42.537Z,8.33
2018-09-27T09:09:12.835Z,6.60
2018-09-27T09:11:41.457Z,5.13
2018-09-27T09:14:11.023Z,5.60
2018-09-27T09:16:39.575Z,10.00
2018-09-27T09:19:08.106Z,6.43
2018-09-27T09:21:36.697Z,11.47
2018-09-27T09:24:06.150Z,5.93
2018-09-27T09:26:34.678Z,7.33
2018-09-27T09:29:03.197Z,5.97
2018-09-27T09:31:31.728Z,5.20
2018-09-27T09:34:00.271Z,5.97
2018-09-27T09:36:28.857Z,9.33
2018-09-27T09:38:57.391Z,7.20
2018-09-27T09:41:25.916Z,5.73
2018-09-27T09:43:54.491Z,7.20
2018-09-27T09:46:23.068Z,8.43
2018-09-27T09:48:51.601Z,6.13
2018-09-27T09:51:20.667Z,6.43
2018-09-27T09:53:49.181Z,5.03
2018-09-27T09:56:17.788Z,5.00
2018-09-27T09:58:46.319Z,5.40
2018-09-27T10:01:14.873Z,8.53
2018-09-27T10:03:43.469Z,9.13
2018-09-27T10:06:12.380Z,4.13
2018-09-27T10:08:41.057Z,6.60
2018-09-27T10:11:09.630Z,5.53
2018-09-27T10:13:38.172Z,4.67
2018-09-27T10:16:06.723Z,4.50
2018-09-27T10:18:35.256Z,3.83
2018-09-27T10:21:10.089Z,4.50
2018-09-27T10:23:43.247Z,5.57
2018-09-27T10:26:11.808Z,5.53
2018-09-27T10:28:40.376Z,5.33
2018-09-27T10:31:09.077Z,8.23
2018-09-27T10:33:37.645Z,11.10
2018-09-27T10:36:06.182Z,9.50
2018-09-27T10:38:34.809Z,9.83
2018-09-27T10:41:03.404Z,8.33
2018-09-27T10:43:31.932Z,6.73
2018-09-27T10:46:00.480Z,10.90
2018-09-27T10:48:29.361Z,10.30
2018-09-27T10:50:57.900Z,11.13
2018-09-27T10:53:26.556Z,10.87
2018-09-27T10:55:55.154Z,8.80
2018-09-27T10:58:24.016Z,14.33
2018-09-27T11:00:52.597Z,10.00
2018-09-27T11:03:21.183Z,12.80
2018-09-27T11:05:49.759Z,13.53
2018-09-27T11:08:18.323Z,9.93
2018-09-27T11:10:46.844Z,8.03
2018-09-27T11:13:15.522Z,10.00
2018-09-27T11:15:44.119Z,9.60
2018-09-27T11:18:12.683Z,16.17
2018-09-27T11:20:41.227Z,10.13
2018-09-27T11:23:09.765Z,11.17
2018-09-27T11:25:38.296Z,9.20
2018-09-27T11:28:06.963Z,8.70
2018-09-27T11:30:35.905Z,11.87
2018-09-27T11:33:04.621Z,7.37
2018-09-27T11:35:33.260Z,9.17
2018-09-27T11:38:01.820Z,8.70
2018-09-27T11:40:30.405Z,12.40
2018-09-27T11:42:59.077Z,8.93
2018-09-27T11:45:27.633Z,12.67
2018-09-27T11:47:56.264Z,11.87
2018-09-27T11:50:24.806Z,8.67
2018-09-27T11:52:53.386Z,10.47
2018-09-27T11:55:22.716Z,9.80
2018-09-27T11:57:51.250Z,6.50
2018-09-27T12:00:19.868Z,8.67
2018-09-27T12:02:48.410Z,7.27
2018-09-27T12:05:17.910Z,10.20
2018-09-27T12:07:46.435Z,7.90
2018-09-27T12:10:14.988Z,5.60
2018-09-27T12:12:43.797Z,7.17
2018-09-27T12:15:12.763Z,7.90
2018-09-27T12:17:41.392Z,9.23
2018-09-27T12:20:09.977Z,7.00
2018-09-27T12:22:38.529Z,5.63
2018-09-27T12:25:07.089Z,7.43
2018-09-27T12:27:35.656Z,8.80
2018-09-27T12:30:04.323Z,7.07
2018-09-27T12:32:32.849Z,7.53
2018-09-27T12:35:01.389Z,8.53
2018-09-27T12:37:29.959Z,6.63
2018-09-27T12:39:58.510Z,5.73
2018-09-27T12:42:27.154Z,7.03
2018-09-27T12:44:55.713Z,6.00
2018-09-27T12:47:24.291Z,6.27
2018-09-27T12:49:52.885Z,6.43
2018-09-27T12:52:21.545Z,6.23
2018-09-27T12:54:49.999Z,9.70
2018-09-27T12:57:18.574Z,7.57
2018-09-27T12:59:47.108Z,7.23
2018-09-27T13:02:15.846Z,6.70
2018-09-27T13:04:44.332Z,5.50
2018-09-27T13:07:12.936Z,10.57
2018-09-27T13:09:41.969Z,6.67
2018-09-27T13:12:10.695Z,6.40
2018-09-27T13:14:39.254Z,6.70
2018-09-27T13:17:08.115Z,6.63
2018-09-27T13:19:36.764Z,7.17
2018-09-27T13:22:05.296Z,7.20
2018-09-27T13:24:33.917Z,5.73
2018-09-27T13:27:02.491Z,10.63
2018-09-27T13:29:31.044Z,6.10
2018-09-27T13:31:59.626Z,7.40
2018-09-27T13:34:28.280Z,8.10
2018-09-27T13:36:56.894Z,6.33
2018-09-27T13:39:25.488Z,8.63
2018-09-27T13:41:54.119Z,3.80
2018-09-27T13:44:22.828Z,4.83
2018-09-27T13:46:51.364Z,6.50
2018-09-27T13:49:20.096Z,7.13
2018-09-27T13:51:48.682Z,5.30
2018-09-27T13:54:17.232Z,5.40
2018-09-27T13:56:45.813Z,4.20
2018-09-27T13:59:14.840Z,9.13
2018-09-27T14:01:43.366Z,5.00
2018-09-27T14:04:11.993Z,4.93
2018-09-27T14:06:40.619Z,7.07
2018-09-27T14:09:12.319Z,8.23
2018-09-27T14:11:42.123Z,4.27
2018-09-27T14:14:10.651Z,4.57
2018-09-27T14:16:39.281Z,7.73
2018-09-27T14:19:08.130Z,12.97
2018-09-27T14:21:36.892Z,5.23
2018-09-27T14:24:05.430Z,4.23
2018-09-27T14:26:33.992Z,4.33
2018-09-27T14:29:02.556Z,4.70
2018-09-27T14:31:31.538Z,5.30
2018-09-27T14:34:00.065Z,3.50
2018-09-27T14:36:28.657Z,4.60
2018-09-27T14:38:57.198Z,4.93
2018-09-27T14:41:25.753Z,2.80
2018-09-27T14:43:54.280Z,4.47
2018-09-27T14:46:22.899Z,4.77
2018-09-27T14:48:51.420Z,4.50
2018-09-27T14:51:20.047Z,3.80
2018-09-27T14:53:48.580Z,8.53
2018-09-27T14:56:17.192Z,7.43
2018-09-27T14:58:45.750Z,4.73
2018-09-27T15:01:14.295Z,3.87
2018-09-27T15:03:42.894Z,5.27
2018-09-27T15:06:11.513Z,3.97
2018-09-27T15:08:40.080Z,7.20
2018-09-27T15:11:08.672Z,3.13
2018-09-27T15:13:37.224Z,4.13
2018-09-27T15:16:05.768Z,3.17
2018-09-27T15:18:34.333Z,13.00
2018-09-27T15:21:02.936Z,13.93
2018-09-27T15:23:31.521Z,8.00
2018-09-27T15:26:00.292Z,14.40
2018-09-27T15:28:28.847Z,12.73
2018-09-27T15:30:57.419Z,2.70
2018-09-27T15:33:25.984Z,2.60
2018-09-27T15:35:54.688Z,6.40
2018-09-27T15:38:24.026Z,2.13
2018-09-27T15:40:52.596Z,4.60
2018-09-27T15:43:21.179Z,4.83
2018-09-27T15:45:49.812Z,4.67
2018-09-27T15:48:18.394Z,3.53
2018-09-27T15:50:46.913Z,66.37
2018-09-27T15:53:15.476Z,27.03
2018-09-27T15:55:44.024Z,27.43
2018-09-27T15:58:12.666Z,10.33
2018-09-27T16:00:41.211Z,12.10
2018-09-27T16:03:09.827Z,28.13
2018-09-27T16:05:38.396Z,7.50
2018-09-27T16:08:06.973Z,10.70
2018-09-27T16:10:35.797Z,9.30
2018-09-27T16:13:04.395Z,21.73
2018-09-27T16:15:32.921Z,9.30
2018-09-27T16:27:10.547Z,8.67
2018-09-27T16:29:39.222Z,9.57
2018-09-27T16:32:07.845Z,6.60
2018-09-27T16:34:36.683Z,6.73
2018-09-27T16:37:05.756Z,2.60
2018-09-27T16:39:34.926Z,3.37
2018-09-27T16:42:03.570Z,2.97
2018-09-27T16:44:32.200Z,8.93
2018-09-27T16:47:00.936Z,2.40
2018-09-27T16:49:29.744Z,7.73
2018-09-27T16:51:58.344Z,18.03
2018-09-27T16:54:27.012Z,7.23
2018-09-27T17:33:29.657Z,2.93
2018-09-27T17:35:58.258Z,6.20
2018-09-27T17:38:27.232Z,9.13
2018-09-27T17:40:55.815Z,3.60
2018-09-27T17:43:24.493Z,5.40
2018-09-27T17:45:53.269Z,13.27
2018-09-27T17:48:21.788Z,7.90
2018-09-27T17:50:50.407Z,9.83
2018-09-27T17:53:19.023Z,13.80
2018-09-27T17:55:47.576Z,3.33
2018-09-27T17:58:16.110Z,8.87
2018-09-27T18:00:44.941Z,18.50
2018-09-27T18:03:13.523Z,18.40
2018-09-27T18:05:42.559Z,26.20
2018-09-27T18:08:11.371Z,17.43
2018-09-27T18:10:40.011Z,14.37
2018-09-27T18:13:08.746Z,14.30
2018-09-27T18:15:37.731Z,11.60
2018-09-27T18:18:06.311Z,21.73
2018-09-27T18:20:34.920Z,25.70
2018-09-27T18:23:03.538Z,25.67
2018-09-27T18:25:32.275Z,20.63
2018-09-27T18:28:00.915Z,15.43
2018-09-27T18:30:30.564Z,14.73
2018-09-27T18:32:59.129Z,17.17
2018-09-27T18:35:27.677Z,18.47
2018-09-27T18:37:56.304Z,17.03
2018-09-27T18:40:24.816Z,18.03
2018-09-27T18:42:53.429Z,17.90
2018-09-27T18:45:22.000Z,13.60
2018-09-27T18:47:50.536Z,8.87
2018-09-27T18:50:19.075Z,11.40
2018-09-27T18:52:48.505Z,12.67
2018-09-27T18:55:17.082Z,14.83
2018-09-27T18:57:45.657Z,8.57
2018-09-27T19:00:14.621Z,10.97
2018-09-27T19:02:49.694Z,12.07
2018-09-27T19:05:18.255Z,24.63
2018-09-27T19:07:46.883Z,20.50
2018-09-27T19:10:15.429Z,12.13
2018-09-27T19:12:44.070Z,11.47
2018-09-27T19:15:13.015Z,18.90
2018-09-27T19:17:41.677Z,22.57
2018-09-27T19:20:10.239Z,37.77
2018-09-27T19:22:38.881Z,53.00
2018-09-27T19:25:07.496Z,60.53
2018-09-27T19:27:36.223Z,46.17
2018-09-27T19:30:04.948Z,46.43
2018-09-27T19:32:33.471Z,41.27
2018-09-27T19:35:02.462Z,50.90
2018-09-27T19:37:31.115Z,32.27
2018-09-27T19:40:00.671Z,31.10
2018-09-27T19:42:29.231Z,20.13
2018-09-27T19:44:57.758Z,13.90
2018-09-27T19:47:26.368Z,11.00
2018-09-27T19:49:54.944Z,15.67
2018-09-27T19:52:23.608Z,14.77
2018-09-27T19:54:52.271Z,8.57
2018-09-27T19:57:20.900Z,6.27
2018-09-27T19:59:50.444Z,6.43
2018-09-27T20:02:19.846Z,6.70
2018-09-27T20:04:48.412Z,12.33
2018-09-27T20:07:17.017Z,12.77
2018-09-27T20:09:45.622Z,16.57
2018-09-27T20:12:14.208Z,18.63
2018-09-27T20:14:42.769Z,21.87
2018-09-27T20:17:11.330Z,17.10
2018-09-27T20:19:39.864Z,9.00
2018-09-27T20:22:09.712Z,7.50
2018-09-27T20:24:38.403Z,14.57
2018-09-27T20:27:07.301Z,16.90
2018-09-27T20:29:35.909Z,15.37
2018-09-27T20:32:04.716Z,15.23
2018-09-27T20:34:34.060Z,12.70
2018-09-27T20:37:02.711Z,7.03
2018-09-27T20:39:31.282Z,12.57
2018-09-27T20:41:59.817Z,8.83
2018-09-27T20:44:28.492Z,9.40
2018-09-27T20:46:57.070Z,7.70
2018-09-27T20:49:25.628Z,6.93
2018-09-27T20:51:54.176Z,6.43
2018-09-27T20:54:22.743Z,4.60
2018-09-27T20:56:51.321Z,10.80
2018-09-27T20:59:19.889Z,9.10
2018-09-27T21:01:48.542Z,7.80
2018-09-27T21:04:17.376Z,10.50
2018-09-27T21:06:46.032Z,6.93
2018-09-27T21:09:14.990Z,6.17
2018-09-27T21:11:43.763Z,5.97
2018-09-27T21:14:12.707Z,4.10
2018-09-27T21:16:41.583Z,7.20
2018-09-27T21:19:10.519Z,4.63
2018-09-27T21:21:40.121Z,4.00
2018-09-27T21:24:09.741Z,7.10
2018-09-27T21:26:38.326Z,6.53
2018-09-27T21:29:07.874Z,6.00
2018-09-27T21:31:36.432Z,4.90
2018-09-27T21:34:05.334Z,4.33
2018-09-27T21:36:33.888Z,3.90
2018-09-27T21:39:02.923Z,3.30
2018-09-27T21:41:31.674Z,4.60
2018-09-27T21:44:00.258Z,3.03
2018-09-27T21:46:28.812Z,6.93
2018-09-27T21:48:57.363Z,6.37
2018-09-27T21:51:25.918Z,5.53
2018-09-27T21:53:54.448Z,3.00
2018-09-27T21:56:23.048Z,2.30
2018-09-27T21:58:51.592Z,2.80
2018-09-27T22:01:20.132Z,3.93
2018-09-27T22:03:48.696Z,3.77
2018-09-27T22:06:17.280Z,2.67
2018-09-27T22:08:45.813Z,3.87
2018-09-27T22:11:14.437Z,4.37
2018-09-27T22:13:42.979Z,2.37
2018-09-27T22:16:11.547Z,2.63
2018-09-27T22:27:48.947Z,3.80
2018-09-27T22:30:17.551Z,4.47
2018-09-27T22:32:46.120Z,2.23
2018-09-27T22:35:14.704Z,9.20
2018-09-27T22:37:43.331Z,4.00
2018-09-27T22:40:11.920Z,2.37
2018-09-27T22:42:41.391Z,2.13
2018-09-27T22:45:10.691Z,5.47
2018-09-27T22:47:39.321Z,2.27
2018-09-27T22:50:07.950Z,4.47
2018-09-27T22:52:36.732Z,2.73
2018-09-27T22:55:05.521Z,2.07
2018-09-27T22:57:34.984Z,2.77
2018-09-27T23:00:03.647Z,2.23
2018-09-27T23:02:32.176Z,2.40
2018-09-27T23:05:00.683Z,2.73
2018-09-27T23:07:29.579Z,2.03
2018-09-27T23:09:58.207Z,1.67
2018-09-27T23:12:26.747Z,2.07
2018-09-27T23:14:55.261Z,1.77
2018-09-27T23:17:23.824Z,2.80
2018-09-27T23:19:52.344Z,12.17
2018-09-27T23:22:20.884Z,2.53
2018-09-27T23:24:49.443Z,3.13
2018-09-27T23:27:18.001Z,4.60
2018-09-27T23:29:46.561Z,1.70
2018-09-27T23:32:15.180Z,2.30
2018-09-27T23:34:43.725Z,1.50
2018-09-27T23:37:12.303Z,5.33
2018-09-27T23:39:44.013Z,1.73
2018-09-27T23:42:12.590Z,3.10
2018-09-27T23:44:41.127Z,3.03
2018-09-27T23:47:09.700Z,2.30
2018-09-27T23:49:38.296Z,2.07
2018-09-27T23:52:06.957Z,6.00
2018-09-27T23:54:35.811Z,3.53
2018-09-27T23:57:04.452Z,5.40
2018-09-27T23:59:32.993Z,3.40
